Deunquat, Ohio
Current Conditions -  °F | °C
As of 3:21 AM on Tuesday 27 Jan 2015 (Local Time) from KMNN Reporting Station
Moderate Fog Moderate Fog  
Wind Chill: -21°   Ceiling: NA
Heat Index: -21°   Visibility: 0mi
Dew Point: -23°   Wind: 3mph
Humidity: 83%   Direction: 10°N
Pressure: 29.93"   Gusts: NA
Location:  40.948°N, 83.1346°W
Report Text: KMNN 270821Z AUTO 01003KT M1/4SM FZFG M21/M23 A2993 RMK AO2 T12061228 TSNO $
Loading
Personal Weather Stations






























Interactive Weather Map New forecast layout! Learn more

10-Day Weather Forecast

Advertisements
Track Severe Weather on mobile